• Join FlightAware (Why Join?)
  • Login
  • US Flag 
09:40AM EST


 

Airport Tracker/Info


-or-


 

Live Flight TrackerFlight Track Log ✈ N4508X ✈ 14-May-2013 ✈ KBDL - KHPN

Flight Track Log - Related Links

Times and Time Zones

All times are in EDT time to prevent confusion due to time zone crossing. See the N4508X flight status page for this flight to view local times or setup timezone preferences in your user account.

Time Position Orientation Groundspeed Altitude Reporting Facility
EDT Latitude Longitude Course Direction KTS MPH feet Rate Location/Type
11:30AM 41.9311 -72.7275 222° Southwest 86 99 1,900  Level Boston Center
11:31AM 41.9103 -72.7497 218° Southwest 89 102 2,400 240 Climbing Boston Center
11:32AM 41.8850 -72.7747 216° Southwest 109 125 2,500  Climbing Boston Center
11:33AM 41.8642 -72.8025 225° Southwest 113 130 2,500  Level Boston Center
11:34AM 41.8369 -72.8331 220° Southwest 115 132 2,500 -60 Level Boston Center
11:35AM 41.8119 -72.8633 222° Southwest 122 140 2,400  Descending Boston Center
11:36AM 41.7791 -72.8741 222° Southwest  Level Estimated
11:36AM 41.7889 -72.8911 222° Southwest 112 129 2,500  Level Boston Center
11:37AM 41.7658 -72.9189 222° Southwest 112 129 2,500  Level Boston Center
11:38AM 41.7406 -72.9464 219° Southwest 116 133 2,500 -120 Level Boston Center
11:39AM 41.7175 -72.9797 227° Southwest 116 133 2,300  Descending Boston Center
11:40AM 41.6925 -73.0044 216° Southwest 111 128 2,500  Climbing Boston Center
11:41AM 41.6694 -73.0292 219° Southwest 111 128 2,400 -120 Descending Boston Center
11:43AM 41.6356 -73.0505 205° Southwest  Level FlightAware Approximate
11:50AM 41.4374 -73.2565 222° Southwest  Level FlightAware Approximate
11:51AM 41.4107 -73.2881 222° Southwest  Level FlightAware Approximate
11:52AM 41.3840 -73.3196 222° Southwest  Level FlightAware Approximate
11:53AM 41.3573 -73.3511 222° Southwest  Level FlightAware Approximate
11:54AM 41.3306 -73.3826 222° Southwest  Level FlightAware Approximate
11:55AM 41.3039 -73.4140 221° Southwest  Level FlightAware Approximate
11:56AM 41.2771 -73.4454 221° Southwest  Level FlightAware Approximate
11:57AM 41.2504 -73.4768 221° Southwest  Level FlightAware Approximate
11:58AM 41.2237 -73.5082 221° Southwest  Level FlightAware Approximate
11:59AM 41.1969 -73.5395 221° Southwest  Level FlightAware Approximate
12:00PM 41.1702 -73.5708 221° Southwest  Level FlightAware Approximate
12:01PM 41.1434 -73.6021 221° Southwest  Level FlightAware Approximate
12:02PM 41.1166 -73.6334 225° Southwest  Level FlightAware Approximate
12:03PM 41.0915 -73.6670 225° Southwest  Level FlightAware Approximate
12:04PM 41.0667 -73.7000 225° Southwest  Level FlightAware Approximate
12:05PM 41.0669 -73.7076 225° Southwest  Level Estimated
12:06PM 41.0667 -73.7000 225° Southwest  Level FlightAware Approximate
12:07PM 41.0669 -73.7076 225° Southwest  Level Estimated
12:08PM 41.0667 -73.7000 225° Southwest  Level FlightAware Approximate
12:09PM 41.0669 -73.7076 225° Southwest  Level Estimated
12:10PM 41.0667 -73.7000 225° Southwest  Level FlightAware Approximate
12:11PM 41.0669 -73.7076 225° Southwest  Level Estimated
12:12PM 41.0667 -73.7000 225° Southwest  Level FlightAware Approximate
12:13PM 41.0669 -73.7076 225° Southwest  Level Estimated
12:14PM 41.0667 -73.7000 225° Southwest  Level FlightAware Approximate
12:15PM 41.0669 -73.7076 225° Southwest  Level Estimated
12:16PM 41.0667 -73.7000 225° Southwest  Level FlightAware Approximate
12:17PM 41.0669 -73.7076 225° Southwest  Level Estimated
12:18PM 41.0667 -73.7000 225° Southwest  Level FlightAware Approximate